Terminal Aerodrome Forecast
Issued by NWS Wakefield, VA

Home | Current Version | Previous Version | Text Only | Print | Product List | Glossary On
Versions: 1 2 3 4 5 6 7 8 9 10 11 12 13 14
558
FTUS41 KAKQ 171811 AAA
TAFSBY
TAF AMD
KSBY 171811Z 1718/1818 31011G19KT P6SM SKC
     FM172100 30008KT P6SM SCT250
     FM180100 VRB03KT P6SM SCT250
     FM181000 19008KT P6SM SCT200
     FM181500 20013G21KT P6SM BKN200=

USA.gov is the U.S. government's official web portal to all federal, state and local government web resources and services.